createdAt,value
2022-10-15T00:00:44.801Z,13.13
2022-10-15T00:03:33.152Z,9.60
2022-10-15T00:06:22.609Z,10.88
2022-10-15T00:09:12.313Z,11.30
2022-10-15T00:12:00.606Z,11.93
2022-10-15T00:14:48.962Z,10.32
2022-10-15T00:17:37.808Z,8.90
2022-10-15T00:20:26.159Z,13.27
2022-10-15T00:23:14.476Z,9.80
2022-10-15T00:26:07.316Z,8.23
2022-10-15T00:28:58.187Z,9.93
2022-10-15T00:34:34.761Z,12.85
2022-10-15T00:37:23.350Z,9.18
2022-10-15T00:40:15.001Z,9.20
2022-10-15T00:43:04.710Z,9.70
2022-10-15T00:45:53.043Z,8.50
2022-10-15T00:48:41.746Z,8.80
2022-10-15T00:51:34.833Z,11.32
2022-10-15T00:54:24.308Z,8.75
2022-10-15T00:57:13.833Z,9.05
2022-10-15T01:00:08.223Z,8.02
2022-10-15T01:02:56.537Z,9.05
2022-10-15T01:05:45.483Z,8.90
2022-10-15T01:08:34.238Z,7.72
2022-10-15T01:11:34.801Z,8.52
2022-10-15T01:14:36.321Z,8.52
2022-10-15T01:17:31.437Z,8.10
2022-10-15T01:20:59.963Z,8.30
2022-10-15T01:24:27.962Z,10.43
2022-10-15T01:27:30.647Z,7.72
2022-10-15T01:30:25.573Z,7.82
2022-10-15T01:33:28.028Z,10.90
2022-10-15T01:36:20.292Z,8.60
2022-10-15T01:39:13.625Z,8.30
2022-10-15T01:42:04.606Z,8.45
2022-10-15T01:47:49.707Z,7.95
2022-10-15T01:50:43.525Z,9.13
2022-10-15T01:53:34.357Z,8.43
2022-10-15T01:56:24.499Z,6.90
2022-10-15T01:59:12.797Z,8.10
2022-10-15T02:02:01.219Z,7.60
2022-10-15T02:04:50.899Z,9.23
2022-10-15T02:07:48.006Z,7.93
2022-10-15T02:13:51.342Z,9.35
2022-10-15T02:16:44.516Z,10.77
2022-10-15T02:19:38.863Z,9.20
2022-10-15T02:22:34.726Z,7.80
2022-10-15T02:25:25.588Z,9.93
2022-10-15T02:28:16.106Z,9.63
2022-10-15T02:31:06.602Z,6.95
2022-10-15T02:33:57.734Z,8.73
2022-10-15T02:36:46.459Z,8.43
2022-10-15T02:39:36.514Z,8.35
2022-10-15T02:42:25.588Z,8.67
2022-10-15T02:45:14.243Z,7.60
2022-10-15T02:48:02.560Z,7.90
2022-10-15T02:50:50.885Z,10.38
2022-10-15T02:53:39.404Z,9.45
2022-10-15T02:59:23.009Z,7.47
2022-10-15T03:02:15.277Z,7.78
2022-10-15T03:05:07.143Z,9.27
2022-10-15T03:07:55.480Z,7.20
2022-10-15T03:10:45.643Z,8.63
2022-10-15T03:13:37.140Z,8.88
2022-10-15T03:16:25.463Z,9.02
2022-10-15T03:19:13.797Z,8.73
2022-10-15T03:22:02.145Z,8.35
2022-10-15T03:24:50.519Z,9.50
2022-10-15T03:27:38.854Z,8.82
2022-10-15T03:30:28.644Z,7.13
2022-10-15T03:33:17.367Z,8.13
2022-10-15T03:36:08.094Z,8.18
2022-10-15T03:38:56.422Z,8.57
2022-10-15T03:44:38.065Z,7.95
2022-10-15T03:47:27.702Z,8.70
2022-10-15T03:50:16.045Z,8.38
2022-10-15T03:53:05.196Z,9.93
2022-10-15T03:55:53.590Z,10.88
2022-10-15T03:58:42.037Z,12.57
2022-10-15T04:01:30.617Z,14.45
2022-10-15T04:04:20.340Z,11.13
2022-10-15T04:07:08.660Z,10.48
2022-10-15T04:09:56.962Z,9.63
2022-10-15T04:12:45.287Z,10.82
2022-10-15T04:15:33.638Z,12.48
2022-10-15T04:18:22.238Z,12.68
2022-10-15T04:21:12.046Z,9.60
2022-10-15T04:24:00.391Z,11.50
2022-10-15T04:26:48.749Z,9.77
2022-10-15T04:29:37.111Z,10.38
2022-10-15T04:32:25.580Z,12.40
2022-10-15T04:35:14.146Z,9.27
2022-10-15T04:38:03.933Z,8.55
2022-10-15T04:41:00.046Z,11.15
2022-10-15T04:43:48.377Z,9.15
2022-10-15T04:46:36.710Z,9.65
2022-10-15T04:49:25.011Z,8.38
2022-10-15T04:52:13.342Z,8.82
2022-10-15T04:55:04.735Z,8.65
2022-10-15T04:57:53.071Z,7.80
2022-10-15T05:00:41.371Z,7.93
2022-10-15T05:03:29.771Z,11.35
2022-10-15T05:06:20.068Z,11.57
2022-10-15T05:09:08.414Z,10.02
2022-10-15T05:11:58.143Z,10.93
2022-10-15T05:14:46.516Z,9.20
2022-10-15T05:17:34.877Z,10.60
2022-10-15T05:20:23.244Z,12.18
2022-10-15T05:23:11.561Z,8.93
2022-10-15T05:26:01.162Z,8.55
2022-10-15T05:28:51.113Z,9.63
2022-10-15T05:31:39.526Z,10.33
2022-10-15T05:34:30.516Z,11.48
2022-10-15T05:37:19.326Z,10.50
2022-10-15T05:40:09.377Z,11.45
2022-10-15T05:42:58.292Z,11.17
2022-10-15T05:45:48.024Z,10.77
2022-10-15T05:48:36.318Z,9.65
2022-10-15T05:51:28.505Z,10.50
2022-10-15T05:54:16.959Z,8.65
2022-10-15T05:57:05.295Z,8.60
2022-10-15T05:59:53.629Z,11.18
2022-10-15T06:02:43.471Z,12.02
2022-10-15T06:05:33.241Z,9.00
2022-10-15T06:08:22.279Z,11.43
2022-10-15T06:11:10.604Z,11.38
2022-10-15T06:13:58.932Z,10.60
2022-10-15T06:16:50.639Z,10.05
2022-10-15T06:19:40.314Z,11.63
2022-10-15T06:22:31.695Z,10.27
2022-10-15T06:25:20.093Z,10.30
2022-10-15T06:28:09.559Z,9.85
2022-10-15T06:31:00.485Z,10.55
2022-10-15T06:36:39.057Z,11.02
2022-10-15T06:39:27.379Z,9.77
2022-10-15T06:42:15.735Z,10.82
2022-10-15T06:45:04.432Z,11.20
2022-10-15T06:47:52.784Z,13.13
2022-10-15T06:50:41.981Z,15.75
2022-10-15T06:53:32.287Z,11.27
2022-10-15T06:56:20.715Z,11.88
2022-10-15T06:59:09.021Z,10.02
2022-10-15T07:01:57.370Z,12.77
2022-10-15T07:04:45.816Z,12.63
2022-10-15T07:07:34.166Z,13.43
2022-10-15T07:10:24.201Z,13.10
2022-10-15T07:13:12.567Z,10.83
2022-10-15T07:16:05.799Z,13.07
2022-10-15T07:18:54.115Z,10.93
2022-10-15T07:21:42.452Z,13.40
2022-10-15T07:24:30.754Z,14.38
2022-10-15T07:27:20.732Z,13.52
2022-10-15T07:30:10.291Z,12.27
2022-10-15T07:32:59.241Z,12.73
2022-10-15T07:35:47.585Z,11.20
2022-10-15T07:38:36.665Z,11.82
2022-10-15T07:41:25.015Z,13.63
2022-10-15T07:44:14.676Z,10.70
2022-10-15T07:47:03.031Z,13.00
2022-10-15T07:49:51.324Z,10.32
2022-10-15T07:52:39.704Z,11.27
2022-10-15T07:55:28.052Z,10.27
2022-10-15T07:58:16.433Z,13.63
2022-10-15T08:01:07.351Z,13.93
2022-10-15T08:06:44.004Z,13.80
2022-10-15T08:09:32.334Z,14.93
2022-10-15T08:12:20.680Z,13.80
2022-10-15T08:15:09.738Z,13.52
2022-10-15T08:18:00.772Z,16.30
2022-10-15T08:20:49.194Z,13.75
2022-10-15T08:23:38.080Z,17.40
2022-10-15T08:26:26.658Z,15.38
2022-10-15T08:29:15.427Z,16.23
2022-10-15T08:32:03.868Z,21.38
2022-10-15T08:34:53.669Z,18.55
2022-10-15T08:37:42.012Z,19.33
2022-10-15T08:40:30.723Z,20.90
2022-10-15T08:43:24.161Z,18.42
2022-10-15T08:49:06.185Z,19.02
2022-10-15T08:52:03.296Z,20.85
2022-10-15T08:54:52.066Z,17.77
2022-10-15T08:57:46.976Z,21.30
2022-10-15T09:00:42.125Z,22.60
2022-10-15T09:03:39.987Z,18.35
2022-10-15T09:06:32.214Z,18.65
2022-10-15T09:09:31.563Z,17.77
2022-10-15T09:12:37.160Z,20.10
2022-10-15T09:15:28.397Z,17.77
2022-10-15T09:18:22.628Z,22.00
2022-10-15T09:21:13.149Z,18.75
2022-10-15T09:24:03.586Z,19.42
2022-10-15T09:27:01.996Z,16.42
2022-10-15T09:29:56.632Z,19.27
2022-10-15T09:32:51.980Z,19.65
2022-10-15T09:35:47.065Z,17.08
2022-10-15T09:38:44.104Z,19.58
2022-10-15T09:41:42.422Z,17.83
2022-10-15T09:44:38.766Z,16.88
2022-10-15T09:47:29.857Z,16.08
2022-10-15T09:53:19.066Z,17.73
2022-10-15T09:56:14.785Z,16.55
2022-10-15T09:59:05.886Z,15.90
2022-10-15T10:02:03.830Z,16.00
2022-10-15T10:04:52.602Z,16.48
2022-10-15T10:07:41.471Z,16.40
2022-10-15T10:10:40.762Z,17.75
2022-10-15T10:13:34.709Z,17.55
2022-10-15T10:16:23.836Z,17.10
2022-10-15T10:19:16.455Z,17.08
2022-10-15T10:22:13.858Z,15.52
2022-10-15T10:25:28.861Z,16.45
2022-10-15T10:28:22.922Z,14.93
2022-10-15T10:31:12.108Z,16.25
2022-10-15T10:34:03.659Z,14.95
2022-10-15T10:36:54.837Z,17.45
2022-10-15T10:39:45.028Z,13.98
2022-10-15T10:42:38.135Z,13.50
2022-10-15T10:45:27.665Z,12.25
2022-10-15T10:48:24.532Z,9.85
2022-10-15T10:51:19.020Z,11.43
2022-10-15T10:54:14.570Z,11.55
2022-10-15T10:57:03.029Z,11.88
2022-10-15T10:59:53.833Z,11.00
2022-10-15T11:02:44.045Z,10.82
2022-10-15T11:05:39.095Z,10.00
2022-10-15T11:08:37.962Z,8.98
2022-10-15T11:11:33.461Z,9.10
2022-10-15T11:14:32.072Z,12.25
2022-10-15T11:17:27.357Z,9.57
2022-10-15T11:20:39.988Z,9.73
2022-10-15T11:23:53.850Z,11.45
2022-10-15T11:27:11.164Z,8.05
2022-10-15T11:30:05.047Z,8.70
2022-10-15T11:33:07.783Z,8.95
2022-10-15T11:36:11.682Z,9.13
2022-10-15T11:39:14.145Z,9.95
2022-10-15T11:42:14.094Z,9.95
2022-10-15T11:45:23.579Z,8.70
2022-10-15T11:48:18.358Z,8.25
2022-10-15T11:51:17.552Z,8.43
2022-10-15T11:54:23.774Z,7.43
2022-10-15T11:57:16.404Z,8.57
2022-10-15T12:00:15.540Z,8.45
2022-10-15T12:03:08.599Z,7.45
2022-10-15T12:06:01.268Z,7.82
2022-10-15T12:08:51.784Z,8.23
2022-10-15T12:11:46.767Z,6.55
2022-10-15T12:14:42.938Z,6.65
2022-10-15T12:17:43.428Z,10.10
2022-10-15T12:20:32.149Z,6.47
2022-10-15T12:23:26.387Z,4.38
2022-10-15T12:26:31.988Z,6.53
2022-10-15T12:29:26.782Z,5.95
2022-10-15T12:32:24.958Z,3.40
2022-10-15T12:38:26.621Z,3.58
2022-10-15T12:41:16.024Z,2.92
2022-10-15T12:44:13.888Z,1.75
2022-10-15T12:47:02.281Z,1.23
2022-10-15T12:50:03.575Z,0.88
2022-10-15T12:53:02.836Z,1.05
2022-10-15T12:56:13.701Z,0.80
2022-10-15T13:01:53.293Z,0.80
2022-10-15T13:04:43.028Z,1.13
2022-10-15T13:07:34.999Z,2.00
2022-10-15T13:10:28.253Z,0.80
2022-10-15T13:13:19.163Z,1.23
2022-10-15T13:16:10.052Z,2.25
2022-10-15T13:19:00.342Z,1.58
2022-10-15T13:21:50.956Z,1.42
2022-10-15T13:24:45.571Z,1.05
2022-10-15T13:27:37.503Z,0.70
2022-10-15T13:30:25.863Z,0.60
2022-10-15T13:33:14.245Z,0.50
2022-10-15T13:36:07.913Z,1.52
2022-10-15T13:39:00.540Z,7.57
2022-10-15T13:41:51.121Z,12.85
2022-10-15T13:44:39.458Z,4.38
2022-10-15T13:47:31.247Z,7.78
2022-10-15T13:50:22.691Z,2.17
2022-10-15T13:53:18.753Z,1.85
2022-10-15T13:56:24.345Z,1.35
2022-10-15T13:59:20.157Z,0.50
2022-10-15T14:02:13.424Z,1.00
2022-10-15T14:05:16.897Z,1.85
2022-10-15T14:08:05.353Z,1.15
2022-10-15T14:10:55.058Z,0.40
2022-10-15T14:13:48.158Z,0.30
2022-10-15T14:16:42.980Z,0.47
2022-10-15T14:19:32.352Z,0.40
2022-10-15T14:22:24.133Z,1.00
2022-10-15T14:28:05.965Z,0.57
2022-10-15T14:30:54.980Z,0.30
2022-10-15T14:33:47.708Z,2.67
2022-10-15T14:36:43.403Z,0.80
2022-10-15T14:39:33.800Z,2.75
2022-10-15T14:42:29.862Z,0.38
2022-10-15T14:45:25.426Z,0.30
2022-10-15T14:48:20.129Z,0.45
2022-10-15T14:51:17.291Z,0.47
2022-10-15T14:54:05.811Z,0.80
2022-10-15T14:56:54.403Z,0.30
2022-10-15T14:59:42.868Z,0.28
2022-10-15T15:02:31.766Z,0.77
2022-10-15T15:05:23.838Z,0.20
2022-10-15T15:08:13.614Z,0.10
2022-10-15T15:11:04.296Z,0.47
2022-10-15T15:16:41.081Z,0.20
2022-10-15T15:19:29.442Z,0.30
2022-10-15T15:22:22.713Z,0.45
2022-10-15T15:25:16.670Z,0.20
2022-10-15T15:28:05.420Z,0.30
2022-10-15T15:30:58.258Z,6.80
2022-10-15T15:33:46.851Z,5.32
2022-10-15T15:36:35.178Z,0.60
2022-10-15T15:39:23.494Z,0.55
2022-10-15T15:42:17.474Z,1.42
2022-10-15T15:45:06.544Z,9.43
2022-10-15T15:47:56.279Z,4.35
2022-10-15T15:50:44.666Z,3.30
2022-10-15T15:53:33.034Z,5.13
2022-10-15T15:56:22.410Z,2.30
2022-10-15T15:59:12.240Z,9.07
2022-10-15T16:02:00.623Z,0.20
2022-10-15T16:04:49.087Z,0.20
2022-10-15T16:07:37.503Z,0.68
2022-10-15T16:10:25.816Z,0.90
2022-10-15T16:13:14.193Z,1.52
2022-10-15T16:16:03.961Z,0.35
2022-10-15T16:18:52.450Z,0.45
2022-10-15T16:21:40.855Z,0.80
2022-10-15T16:24:29.207Z,0.55
2022-10-15T16:27:17.563Z,0.30
2022-10-15T16:30:06.834Z,0.30
2022-10-15T16:32:56.646Z,1.08
2022-10-15T16:35:44.977Z,0.35
2022-10-15T16:38:33.328Z,0.80
2022-10-15T16:41:21.775Z,0.75
2022-10-15T16:44:10.227Z,1.17
2022-10-15T16:46:58.558Z,1.30
2022-10-15T16:49:48.452Z,2.35
2022-10-15T16:52:37.003Z,1.13
2022-10-15T16:55:25.389Z,2.55
2022-10-15T16:58:13.678Z,0.57
2022-10-15T17:01:03.434Z,2.25
2022-10-15T17:03:51.770Z,1.27
2022-10-15T17:06:41.464Z,1.33
2022-10-15T17:09:29.833Z,0.70
2022-10-15T17:12:18.434Z,0.80
2022-10-15T17:15:08.056Z,1.05
2022-10-15T17:17:56.363Z,2.28
2022-10-15T17:20:45.884Z,1.50
2022-10-15T17:23:36.042Z,3.47
2022-10-15T17:26:26.223Z,3.92
2022-10-15T17:29:20.114Z,3.58
2022-10-15T17:32:08.699Z,4.13
2022-10-15T17:35:01.367Z,3.03
2022-10-15T17:37:51.907Z,3.15
2022-10-15T17:40:42.136Z,2.33
2022-10-15T17:43:30.534Z,4.75
2022-10-15T17:46:21.323Z,4.60
2022-10-15T17:51:59.620Z,2.42
2022-10-15T17:54:47.946Z,1.48
2022-10-15T17:57:37.759Z,1.10
2022-10-15T18:00:26.091Z,1.40
2022-10-15T18:03:14.452Z,2.45
2022-10-15T18:06:08.254Z,3.90
2022-10-15T18:08:57.023Z,1.67
2022-10-15T18:11:46.188Z,1.20
2022-10-15T18:14:36.001Z,1.20
2022-10-15T18:17:24.537Z,2.33
2022-10-15T18:20:14.075Z,3.55
2022-10-15T18:23:02.434Z,2.50
2022-10-15T18:26:00.999Z,3.38
2022-10-15T18:28:50.799Z,7.05
2022-10-15T18:31:40.576Z,4.82
2022-10-15T18:34:30.330Z,6.43
2022-10-15T18:37:18.679Z,3.10
2022-10-15T18:40:08.424Z,3.45
2022-10-15T18:42:56.721Z,1.80
2022-10-15T18:45:47.300Z,1.75
2022-10-15T18:48:38.043Z,0.90
2022-10-15T18:51:26.507Z,1.02
2022-10-15T18:54:15.072Z,1.65
2022-10-15T18:57:03.963Z,2.53
2022-10-15T19:02:41.466Z,2.05
2022-10-15T19:05:31.304Z,1.50
2022-10-15T19:08:20.829Z,2.95
2022-10-15T19:11:09.859Z,2.88
2022-10-15T19:13:58.633Z,2.33
2022-10-15T19:16:47.933Z,2.80
2022-10-15T19:19:36.396Z,4.03
2022-10-15T19:22:28.396Z,3.47
2022-10-15T19:25:17.183Z,4.72
2022-10-15T19:28:05.750Z,4.82
2022-10-15T19:30:57.782Z,5.88
2022-10-15T19:33:46.098Z,5.20
2022-10-15T19:36:36.251Z,5.55
2022-10-15T19:39:26.053Z,7.68
2022-10-15T19:42:14.501Z,6.57
2022-10-15T19:45:02.926Z,6.50
2022-10-15T19:47:51.425Z,6.25
2022-10-15T19:50:41.851Z,9.90
2022-10-15T19:53:30.296Z,6.95
2022-10-15T19:56:19.990Z,7.72
2022-10-15T19:59:08.519Z,5.95
2022-10-15T20:01:56.860Z,3.33
2022-10-15T20:04:45.239Z,5.38
2022-10-15T20:07:33.575Z,13.43
2022-10-15T20:10:25.722Z,4.18
2022-10-15T20:13:16.645Z,4.82
2022-10-15T20:16:07.772Z,8.27
2022-10-15T20:18:57.027Z,5.80
2022-10-15T20:21:45.418Z,6.25
2022-10-15T20:24:33.835Z,4.65
2022-10-15T20:27:22.169Z,5.65
2022-10-15T20:30:12.493Z,4.32
2022-10-15T20:33:00.888Z,3.20
2022-10-15T20:35:50.549Z,3.70
2022-10-15T20:38:39.052Z,2.53
2022-10-15T20:41:27.491Z,5.03
2022-10-15T20:44:17.392Z,4.40
2022-10-15T20:47:12.175Z,5.53
2022-10-15T20:50:00.999Z,4.60
2022-10-15T20:52:49.856Z,3.63
2022-10-15T20:55:38.240Z,4.70
2022-10-15T20:58:26.820Z,2.20
2022-10-15T21:01:15.776Z,4.72
2022-10-15T21:04:06.125Z,3.33
2022-10-15T21:06:54.480Z,3.97
2022-10-15T21:09:42.802Z,4.25
2022-10-15T21:12:31.179Z,2.97
2022-10-15T21:15:20.415Z,4.95
2022-10-15T21:18:08.732Z,3.90
2022-10-15T21:21:02.206Z,1.80
2022-10-15T21:23:50.523Z,2.25
2022-10-15T21:26:38.978Z,1.60
2022-10-15T21:29:28.130Z,1.58
2022-10-15T21:32:16.647Z,1.30
2022-10-15T21:35:05.424Z,1.48
2022-10-15T21:37:55.142Z,2.75
2022-10-15T21:40:43.460Z,2.83
2022-10-15T21:43:31.774Z,1.40
2022-10-15T21:46:20.669Z,2.45
2022-10-15T21:49:09.540Z,3.92
2022-10-15T21:51:57.907Z,2.85
2022-10-15T21:54:50.587Z,1.80
2022-10-15T21:57:38.978Z,4.18
2022-10-15T22:00:27.408Z,1.63
2022-10-15T22:03:16.239Z,1.60
2022-10-15T22:06:07.180Z,2.63
2022-10-15T22:08:55.849Z,1.23
2022-10-15T22:11:45.563Z,0.40
2022-10-15T22:14:33.874Z,0.88
2022-10-15T22:17:22.216Z,0.50
2022-10-15T22:20:10.860Z,0.40
2022-10-15T22:22:59.214Z,0.38
2022-10-15T22:25:47.554Z,0.88
2022-10-15T22:28:37.318Z,1.65
2022-10-15T22:31:26.502Z,1.10
2022-10-15T22:34:15.299Z,1.13
2022-10-15T22:37:03.662Z,1.75
2022-10-15T22:39:51.992Z,2.15
2022-10-15T22:42:40.345Z,1.63
2022-10-15T22:45:31.583Z,1.00
2022-10-15T22:48:19.896Z,0.80
2022-10-15T22:51:11.088Z,1.33
2022-10-15T22:54:00.333Z,1.27
2022-10-15T22:56:49.328Z,1.02
2022-10-15T22:59:37.757Z,2.95
2022-10-15T23:02:27.744Z,0.57
2022-10-15T23:05:16.474Z,0.55
2022-10-15T23:08:04.935Z,2.05
2022-10-15T23:10:53.316Z,0.70
2022-10-15T23:13:42.931Z,0.80
2022-10-15T23:16:33.610Z,2.67
2022-10-15T23:19:24.495Z,0.75
2022-10-15T23:25:02.315Z,1.38
2022-10-15T23:27:50.655Z,1.13
2022-10-15T23:30:38.947Z,1.77
2022-10-15T23:33:27.262Z,1.67
2022-10-15T23:36:18.290Z,1.20
2022-10-15T23:39:07.022Z,0.95
2022-10-15T23:41:55.819Z,1.42
2022-10-15T23:44:44.313Z,1.58
2022-10-15T23:47:32.628Z,1.67
2022-10-15T23:50:21.080Z,1.75
2022-10-15T23:53:10.798Z,1.50
2022-10-15T23:56:02.491Z,2.30
2022-10-15T23:58:51.261Z,2.42
